Terminal Aerodrome Forecast
Issued by NWS

Home | Current Version | Previous Version | Text Only | Print | Product List | Glossary On
Versions: 1 2 3 4 5 6 7 8 9 10 11 12 13 14 15 16
000
FTUS44 KBMX 011100 RRA
TAFTOI
TAF
KTOI 011146Z 0112/0212 09008KT 2SM BR OVC003
     FM011400 09006KT 5SM BR OVC005
     FM011700 09004KT 6SM BR OVC007=

USA.gov is the U.S. government's official web portal to all federal, state and local government web resources and services.